Data for 11/26/2010

Time Sea-Level Adjusted Pressure Absolute Pressure Temperature Relative Humidity Dew Point   
(mb) (inHg) (mb) (inHg) (C) (F) (%) (C) (F)
00:05 1021 30.15 851 25.13 -9.6 14.7 92 -10.7 12.8
00:10 1021 30.15 850 25.1 -9.6 14.7 92 -10.7 12.7
00:15 1021 30.15 850 25.1 -9.4 15.1 91 -10.7 12.8
00:20 1021 30.15 850 25.1 -9.5 14.8 91 -10.7 12.7
00:25 1021 30.15 850 25.1 -9.7 14.6 91 -10.8 12.5
00:30 1021 30.15 850 25.1 -9.5 14.8 91 -10.8 12.6
00:35 1021 30.15 850 25.1 -9.4 15.1 90 -10.8 12.6
00:40 1021 30.15 850 25.1 -9.3 15.3 89 -10.7 12.7
00:45 1021 30.15 850 25.1 -9.2 15.4 89 -10.7 12.7
00:50 1021 30.15 850 25.1 -9.1 15.6 89 -10.7 12.8
00:55 1021 30.15 850 25.1 -9 15.9 88 -10.6 13
01:00 1021 30.15 850 25.1 -8.9 16.1 88 -10.5 13
01:05 1021 30.15 850 25.1 -8.8 16.2 87 -10.5 13
01:10 1021 30.15 850 25.1 -8.7 16.3 88 -10.4 13.2
01:15 1021 30.15 850 25.1 -8.8 16.2 88 -10.4 13.2
01:20 1021 30.15 850 25.1 -8.7 16.3 88 -10.4 13.2
01:25 1021 30.15 850 25.1 -8.5 16.7 86 -10.4 13.3
01:30 1021 30.15 850 25.1 -8.5 16.6 86 -10.5 13.1
01:35 1021 30.15 850 25.1 -8.6 16.5 86 -10.5 13.1
01:40 1021 30.15 850 25.1 -8.7 16.4 87 -10.4 13.3
01:45 1021 30.15 850 25.1 -8.5 16.7 86 -10.5 13.1
01:50 1021 30.15 850 25.1 -8.6 16.5 86 -10.5 13.1
01:55 1021 30.15 850 25.1 -8.7 16.3 87 -10.6 13
02:00 1021 30.15 850 25.1 -8.7 16.3 86 -10.6 12.9
02:05 1021 30.15 850 25.1 -8.7 16.3 87 -10.5 13.1
02:10 1021 30.15 850 25.1 -8.5 16.8 85 -10.5 13
02:15 1021 30.15 850 25.1 -8.3 17 85 -10.4 13.2
02:20 1021 30.15 850 25.1 -8.4 16.9 84 -10.6 12.9
02:25 1021 30.15 850 25.1 -8.4 17 84 -10.6 12.9
02:30 1021 30.15 850 25.1 -8.4 16.9 84 -10.6 12.9
02:35 1021 30.15 850 25.1 -8.5 16.8 85 -10.5 13.1
02:40 1021 30.15 850 25.1 -8.5 16.7 85 -10.5 13
02:45 1021 30.15 850 25.1 -8.5 16.7 85 -10.5 13.1
02:50 1021 30.15 850 25.1 -8.4 16.9 85 -10.5 13.1
02:55 1021 30.15 850 25.1 -8.3 17.1 84 -10.6 13
03:00 1021 30.15 850 25.1 -8.3 17.1 83 -10.7 12.8
03:05 1021 30.15 850 25.1 -8.3 17 84 -10.6 12.9
03:10 1021 30.15 850 25.1 -8.4 16.9 84 -10.6 12.9
03:15 1021 30.15 850 25.1 -8.9 15.9 85 -11 12.2
03:20 1021 30.15 850 25.1 -9.3 15.2 88 -11 12.1
03:25 1021 30.15 851 25.13 -8.8 16.1 85 -10.9 12.4
03:30 1021 30.15 851 25.13 -8.6 16.6 85 -10.7 12.7
03:35 1021 30.15 850 25.1 -8.7 16.4 86 -10.6 12.9
03:40 1021 30.15 850 25.1 -8.4 17 85 -10.5 13.1
03:45 1021 30.15 850 25.1 -8.2 17.3 84 -10.4 13.2
03:50 1021 30.15 850 25.1 -8.2 17.3 84 -10.5 13.1
03:55 1021 30.15 850 25.1 -8.2 17.2 84 -10.5 13.1
04:00 1021 30.15 850 25.1 -8.3 17.1 84 -10.6 13
04:05 1021 30.15 850 25.1 -8.2 17.2 84 -10.5 13.1
04:10 1021 30.15 850 25.1 -8.2 17.2 83 -10.6 13
04:15 1021 30.15 850 25.1 -8.6 16.5 86 -10.5 13.1
04:20 1021 30.15 850 25.1 -9.3 15.3 89 -10.8 12.5
04:25 1021 30.15 850 25.1 -9.3 15.4 88 -10.8 12.5
04:30 1021 30.15 850 25.1 -9 15.8 87 -10.8 12.6
04:35 1021 30.15 850 25.1 -8.9 16.1 87 -10.6 12.8
04:40 1021 30.15 850 25.1 -8.7 16.3 86 -10.6 12.9
04:45 1021 30.15 850 25.1 -8.6 16.6 85 -10.6 12.9
04:50 1021 30.15 850 25.1 -8.5 16.6 86 -10.5 13.1
04:55 1021 30.15 850 25.1 -8.5 16.6 85 -10.6 12.8
05:00 1021 30.15 850 25.1 -8.4 16.9 84 -10.7 12.8
05:05 1021 30.15 850 25.1 -8.2 17.2 84 -10.4 13.3
05:10 1021 30.15 850 25.1 -8.2 17.3 85 -10.3 13.4
05:15 1021 30.15 850 25.1 -8.3 17 84 -10.6 12.9
05:20 1021 30.15 850 25.1 -8.6 16.6 84 -10.9 12.4
05:25 1021 30.15 850 25.1 -8.6 16.6 83 -10.9 12.3
05:30 1021 30.15 850 25.1 -8.2 17.3 77 -11.6 11.2
05:35 1021 30.15 850 25.1 -7.9 17.9 76 -11.3 11.6
05:40 1021 30.15 850 25.1 -7.8 18 75 -11.5 11.3
05:45 1021 30.15 850 25.1 -7.8 18 79 -10.8 12.5
05:50 1021 30.15 850 25.1 -7.8 17.9 73 -11.8 10.7
05:55 1021 30.15 850 25.1 -7.9 17.8 76 -11.4 11.5
06:00 1021 30.15 850 25.1 -7.9 17.8 78 -11 12.1
06:05 1021 30.15 850 25.1 -7.9 17.9 80 -10.7 12.7
06:10 1021 30.15 850 25.1 -7.9 17.8 77 -11.3 11.7
06:15 1021 30.15 850 25.1 -7.9 17.8 77 -11.3 11.7
06:20 1021 30.15 850 25.1 -7.9 17.8 79 -11 12.3
06:25 1021 30.15 850 25.1 -7.9 17.7 76 -11.4 11.4
06:30 1021 30.15 850 25.1 -7.9 17.9 78 -11 12.2
06:35 1021 30.15 850 25.1 -7.9 17.9 78 -11 12.2
06:40 1021 30.15 850 25.1 -7.9 17.8 79 -11 12.2
06:45 1021 30.15 850 25.1 -7.9 17.8 80 -10.8 12.5
06:50 1021 30.15 850 25.1 -7.8 18 80 -10.7 12.7
06:55 1021 30.15 850 25.1 -7.8 17.9 80 -10.7 12.7
07:00 1021 30.15 850 25.1 -7.9 17.7 77 -11.3 11.7
07:05 1021 30.15 850 25.1 -8.2 17.3 77 -11.6 11.2
07:10 1021 30.15 850 25.1 -8.3 17.1 77 -11.6 11.2
07:15 1021 30.15 850 25.1 -8.4 16.9 78 -11.7 11
07:20 1021 30.15 850 25.1 -8.6 16.5 81 -11.4 11.5
07:25 1021 30.15 850 25.1 -8.7 16.4 81 -11.3 11.6
07:30 1021 30.15 850 25.1 -8.7 16.4 81 -11.4 11.4
07:35 1021 30.15 850 25.1 -8.7 16.3 82 -11.3 11.7
07:40 1021 30.15 850 25.1 -8.6 16.5 81 -11.4 11.5
07:45 1021 30.15 850 25.1 -8.6 16.5 80 -11.5 11.2
07:50 1021 30.15 850 25.1 -8.6 16.6 78 -11.7 11
07:55 1021 30.15 850 25.1 -8.4 16.8 79 -11.4 11.5
08:00 1021 30.15 850 25.1 -8.2 17.3 78 -11.3 11.6
08:05 1021 30.15 850 25.1 -8.1 17.5 79 -11.1 12
08:10 1021 30.15 850 25.1 -8.2 17.3 78 -11.4 11.4
08:15 1021 30.15 850 25.1 -8.4 16.9 81 -11 12.2
08:20 1021 30.15 850 25.1 -8.5 16.6 80 -11.4 11.5
08:25 1021 30.15 850 25.1 -8.2 17.2 78 -11.5 11.4
08:30 1021 30.15 850 25.1 -7.7 18.2 76 -11.2 11.8
08:35 1021 30.15 850 25.1 -7.1 19.2 75 -10.8 12.5
08:40 1021 30.15 850 25.1 -6.9 19.6 74 -10.7 12.7
08:45 1021 30.15 850 25.1 -6.9 19.5 75 -10.7 12.8
08:50 1021 30.15 850 25.1 -7 19.4 75 -10.8 12.6
08:55 1021 30.15 850 25.1 -7.1 19.3 74 -10.9 12.4
09:00 1021 30.15 850 25.1 -6.9 19.5 74 -10.8 12.6
09:05 1021 30.15 850 25.1 -6.9 19.5 75 -10.6 12.9
09:10 1021 30.15 850 25.1 -6.6 20.1 73 -10.7 12.7
09:15 1020 30.12 850 25.1 -6.3 20.6 72 -10.6 13
09:20 1020 30.12 850 25.1 -5.9 21.4 71 -10.4 13.3
09:25 1020 30.12 850 25.1 -5.4 22.3 69 -10.2 13.6
09:30 1020 30.12 850 25.1 -5.6 22 70 -10.1 13.8
09:35 1020 30.12 849 25.07 -5.5 22 71 -10.1 13.9
09:40 1020 30.12 849 25.07 -5.5 22 69 -10.4 13.4
09:45 1020 30.12 849 25.07 -4.9 23.3 66 -10.3 13.5
09:50 1020 30.12 849 25.07 -5.4 22.4 68 -10.4 13.2
09:55 1020 30.12 849 25.07 -4.3 24.3 64 -10.1 13.8
10:00 1020 30.12 849 25.07 -3.5 25.8 61 -9.9 14.2
10:05 1020 30.12 849 25.07 -2.9 26.8 59 -9.8 14.4
10:10 1020 30.12 849 25.07 -2.8 27 58 -9.9 14.2
10:15 1020 30.12 849 25.07 -2.9 26.7 59 -9.8 14.3
10:20 1020 30.12 849 25.07 -4.3 24.2 63 -10.4 13.4
10:25 1020 30.12 849 25.07 -3.9 25 60 -10.5 13.1
10:30 1020 30.12 849 25.07 -4 24.8 62 -10.3 13.5
10:35 1020 30.12 849 25.07 -4.2 24.5 64 -10 14
10:40 1020 30.12 849 25.07 -3.9 24.9 63 -10 14
10:45 1020 30.12 849 25.07 -2.9 26.8 60 -9.6 14.6
10:50 1020 30.12 849 25.07 -2.2 28.1 58 -9.3 15.2
10:55 1020 30.12 849 25.07 -2.1 28.3 58 -9.2 15.4
11:00 1020 30.12 849 25.07 -1.9 28.7 57 -9.3 15.3
11:05 1020 30.12 849 25.07 -1.5 29.3 53 -9.8 14.3
11:10 1020 30.12 849 25.07 -3.1 26.4 61 -9.6 14.8
11:15 1020 30.12 849 25.07 -4 24.8 63 -10 13.9
11:20 1020 30.12 849 25.07 -4.3 24.3 64 -10.1 13.9
11:25 1019 30.09 849 25.07 -3.9 25.1 61 -10.3 13.5
11:30 1019 30.09 848 25.04 -3.2 26.2 60 -9.9 14.1
11:35 1019 30.09 848 25.04 -2.7 27.2 58 -9.9 14.2
11:40 1019 30.09 848 25.04 -2.2 28 59 -9.2 15.5
11:45 1019 30.09 848 25.04 -2.5 27.6 59 -9.5 15
11:50 1019 30.09 848 25.04 -2 28.5 56 -9.5 14.9
11:55 1018 30.06 848 25.04 -1.3 29.6 54 -9.4 15.1
12:00 1019 30.09 848 25.04 -1.3 29.7 57 -8.8 16.2
12:05 1019 30.09 848 25.04 -1.1 29.9 55 -9 15.7
12:10 1018 30.06 848 25.04 -1.2 29.8 56 -9 15.8
12:15 1018 30.06 848 25.04 -0.9 30.4 54 -9 15.7
12:20 1018 30.06 847 25.01 -0.8 30.6 54 -9 15.7
12:25 1018 30.06 848 25.04 -0.5 31 54 -8.8 16.2
12:30 1018 30.06 848 25.04 -0.9 30.4 55 -8.9 16.1
12:35 1018 30.06 848 25.04 -0.7 30.7 54 -9 15.8
12:40 1018 30.06 847 25.01 -0.5 31 53 -8.9 15.9
12:45 1018 30.06 848 25.04 -1.5 29.4 57 -8.9 16
12:50 1018 30.06 848 25.04 -0.9 30.3 53 -9.4 15.1
12:55 1018 30.06 848 25.04 -1.2 29.8 54 -9.5 14.9
13:00 1018 30.06 847 25.01 -1.3 29.7 56 -8.9 16
13:05 1018 30.06 847 25.01 -0.6 31 52 -9.2 15.5
13:10 1018 30.06 847 25.01 0.6 33 48 -9.2 15.5
13:15 1018 30.06 847 25.01 1.4 34.5 47 -8.6 16.5
13:20 1018 30.06 847 25.01 0.8 33.4 49 -8.6 16.4
13:25 1018 30.06 847 25.01 1 33.8 47 -9.1 15.7
13:30 1018 30.06 847 25.01 0.6 33 49 -9 15.7
13:35 1018 30.06 847 25.01 0.3 32.6 50 -8.9 16.1
13:40 1018 30.06 847 25.01 -0.2 31.6 52 -8.9 15.9
13:45 1018 30.06 847 25.01 -0.5 31.1 52 -9.1 15.5
13:50 1018 30.06 847 25.01 -0.3 31.4 51 -9.4 15.1
13:55 1018 30.06 847 25.01 -0.5 31.1 52 -9.1 15.6
14:00 1018 30.06 847 25.01 -0.6 30.8 50 -9.8 14.3
14:05 1018 30.06 847 25.01 -0.5 31.2 49 -9.9 14.2
14:10 1018 30.06 847 25.01 -1.2 29.9 53 -9.5 15
14:15 1018 30.06 847 25.01 -3.3 26 61 -9.8 14.4
14:20 1018 30.06 847 25.01 -2.4 27.6 57 -9.9 14.3
14:25 1018 30.06 847 25.01 -1.6 29 53 -10 14.1
14:30 1018 30.06 847 25.01 -2 28.4 56 -9.6 14.7
14:35 1018 30.06 847 25.01 -3.4 26 61 -9.9 14.2
14:40 1018 30.06 847 25.01 -3.7 25.3 60 -10.3 13.5
14:45 1018 30.06 847 25.01 -3.4 25.9 60 -10.1 13.8
14:50 1018 30.06 847 25.01 -3.5 25.7 61 -10 14
14:55 1018 30.06 847 25.01 -4 24.7 63 -10.1 13.9
15:00 1018 30.06 847 25.01 -4.4 24.1 63 -10.4 13.2
15:05 1018 30.06 847 25.01 -4.3 24.3 62 -10.5 13.1
15:10 1018 30.06 847 25.01 -3.9 24.9 60 -10.5 13
15:15 1018 30.06 847 25.01 -3.9 25 58 -10.9 12.3
15:20 1018 30.06 847 25.01 -3.4 25.9 59 -10.2 13.6
15:25 1018 30.06 847 25.01 -3.6 25.6 59 -10.5 13
15:30 1018 30.06 847 25.01 -3.8 25.1 61 -10.3 13.4
15:35 1017 30.03 847 25.01 -3.7 25.3 59 -10.6 12.9
15:40 1018 30.06 847 25.01 -3.1 26.4 58 -10.2 13.6
15:45 1018 30.06 847 25.01 -3.5 25.7 61 -10 14.1
15:50 1018 30.06 847 25.01 -3.6 25.5 62 -9.8 14.4
15:55 1017 30.03 847 25.01 -3.8 25.1 63 -9.8 14.3
16:00 1017 30.03 847 25.01 -4 24.9 64 -9.9 14.2
16:05 1017 30.03 847 25.01 -3.9 24.9 63 -10 14.1
16:10 1017 30.03 847 25.01 -4 24.8 64 -9.9 14.2
16:15 1017 30.03 847 25.01 -4.1 24.6 65 -9.8 14.4
16:20 1017 30.03 847 25.01 -4.5 23.9 67 -9.7 14.6
16:25 1017 30.03 847 25.01 -5 23.1 70 -9.6 14.7
16:30 1017 30.03 847 25.01 -5.2 22.7 70 -9.7 14.5
16:35 1017 30.03 847 25.01 -5.5 22 71 -9.9 14.1
16:40 1017 30.03 847 25.01 -6 21.2 74 -10 14
16:45 1017 30.03 847 25.01 -6.1 21 75 -9.9 14.2
16:50 1017 30.03 847 25.01 -5.8 21.5 73 -10 14
16:55 1017 30.03 847 25.01 -5.9 21.4 73 -10 14
17:00 1017 30.03 847 25.01 -5.8 21.6 72 -10 14
17:05 1017 30.03 847 25.01 -5.7 21.7 70 -10.3 13.5
17:10 1017 30.03 847 25.01 -6 21.2 74 -9.9 14.1
17:15 1017 30.03 847 25.01 -6.7 20 77 -10.1 13.8
17:20 1017 30.03 847 25.01 -6.9 19.5 78 -10.2 13.6
17:25 1017 30.03 847 25.01 -7 19.3 78 -10.2 13.7
17:30 1017 30.03 846 24.98 -7.3 18.8 81 -10.1 13.8
17:35 1017 30.03 847 25.01 -7.6 18.4 82 -10.2 13.6
17:40 1017 30.03 847 25.01 -7.6 18.4 83 -10 14
17:45 1017 30.03 847 25.01 -7.2 19.1 82 -9.7 14.5
17:50 1017 30.03 847 25.01 -6.8 19.7 79 -9.9 14.2
17:55 1017 30.03 847 25.01 -7.6 18.3 82 -10.2 13.7
18:00 1017 30.03 847 25.01 -8 17.5 83 -10.4 13.3
18:05 1017 30.03 847 25.01 -8 17.7 87 -9.8 14.3
18:10 1017 30.03 847 25.01 -7.6 18.3 87 -9.5 14.9
18:15 1017 30.03 847 25.01 -7.5 18.5 84 -9.8 14.4
18:20 1017 30.03 846 24.98 -7.8 18 83 -10.1 13.7
18:25 1017 30.03 846 24.98 -7.4 18.7 80 -10.3 13.5
18:30 1017 30.03 846 24.98 -7.4 18.6 79 -10.5 13
18:35 1017 30.03 846 24.98 -7.5 18.6 79 -10.5 13.1
18:40 1017 30.03 846 24.98 -7.4 18.7 80 -10.2 13.6
18:45 1017 30.03 846 24.98 -7.6 18.4 83 -10 13.9
18:50 1017 30.03 846 24.98 -7.5 18.5 84 -9.8 14.4
18:55 1017 30.03 846 24.98 -7.2 19 83 -9.6 14.7
19:00 1017 30.03 846 24.98 -7.3 18.9 84 -9.6 14.7
19:05 1017 30.03 846 24.98 -7.4 18.6 82 -9.9 14.1
19:10 1017 30.03 846 24.98 -7.8 18 83 -10.2 13.6
19:15 1017 30.03 846 24.98 -7.8 18 83 -10.3 13.5
19:20 1017 30.03 846 24.98 -7.5 18.5 82 -10.1 13.8
19:25 1017 30.03 846 24.98 -6.8 19.7 80 -9.7 14.5
19:30 1017 30.03 846 24.98 -6.1 21 80 -9.1 15.7
19:35 1017 30.03 846 24.98 -6.4 20.5 82 -9 15.8
19:40 1017 30.03 846 24.98 -6.6 20.1 83 -9.1 15.6
19:45 1017 30.03 846 24.98 -6.6 20.1 84 -9 15.9
19:50 1017 30.03 846 24.98 -6.4 20.4 83 -8.8 16.1
19:55 1017 30.03 846 24.98 -6.3 20.6 84 -8.7 16.4
20:00 1017 30.03 846 24.98 -6.4 20.4 84 -8.8 16.2
20:05 1017 30.03 846 24.98 -6.8 19.9 84 -9.1 15.7
20:10 1017 30.03 846 24.98 -7.3 18.8 85 -9.5 14.9
20:15 1017 30.03 846 24.98 -7.8 17.9 87 -9.6 14.7
20:20 1017 30.03 846 24.98 -7.3 19 86 -9.2 15.5
20:25 1017 30.03 846 24.98 -7 19.4 84 -9.2 15.4
20:30 1016 30 846 24.98 -7.3 18.9 86 -9.3 15.3
20:35 1017 30.03 846 24.98 -7 19.4 83 -9.4 15.1
20:40 1017 30.03 846 24.98 -7 19.5 83 -9.3 15.3
20:45 1017 30.03 846 24.98 -6.6 20.2 81 -9.3 15.3
20:50 1017 30.03 846 24.98 -6.5 20.3 81 -9.2 15.4
20:55 1017 30.03 846 24.98 -6.6 20.1 82 -9.2 15.5
21:00 1017 30.03 846 24.98 -6.8 19.7 85 -9 15.9
21:05 1016 30 846 24.98 -6.8 19.8 85 -8.9 16
21:10 1016 30 846 24.98 -6.7 19.9 85 -8.8 16.1
21:15 1016 30 846 24.98 -6.9 19.6 84 -9.1 15.6
21:20 1016 30 846 24.98 -7.5 18.5 87 -9.4 15.2
21:25 1016 30 845 24.95 -7.7 18.1 91 -8.9 16
21:30 1016 30 845 24.95 -7.1 19.3 85 -9.2 15.5
21:35 1016 30 845 24.95 -7.1 19.2 86 -9 15.8
21:40 1016 30 845 24.95 -7.3 18.8 85 -9.4 15.1
21:45 1016 30 845 24.95 -7.3 18.8 84 -9.6 14.7
21:50 1016 30 845 24.95 -7.4 18.7 84 -9.7 14.5
21:55 1016 30 845 24.95 -7.2 19 82 -9.8 14.4
22:00 1016 30 845 24.95 -7.1 19.2 83 -9.6 14.7
22:05 1016 30 845 24.95 -7 19.4 83 -9.5 14.9
22:10 1016 30 845 24.95 -6.8 19.8 82 -9.4 15.1
22:15 1016 30 845 24.95 -6.7 19.9 81 -9.5 15
22:20 1016 30 845 24.95 -7.1 19.2 82 -9.6 14.7
22:25 1016 30 845 24.95 -7 19.5 81 -9.7 14.5
22:30 1016 30 845 24.95 -7.2 19 82 -9.8 14.4
22:35 1016 30 845 24.95 -7.3 18.9 83 -9.7 14.5
22:40 1016 30 845 24.95 -6.9 19.6 81 -9.6 14.7
22:45 1016 30 845 24.95 -7.1 19.3 83 -9.5 14.9
22:50 1016 30 845 24.95 -7.2 19 86 -9.3 15.3
22:55 1016 30 845 24.95 -6.6 20.1 82 -9.3 15.3
23:00 1016 30 845 24.95 -6 21.3 79 -9 15.9
23:05 1016 30 845 24.95 -6.2 20.8 80 -9.2 15.5
23:10 1016 30 845 24.95 -6.4 20.6 80 -9.3 15.2
23:15 1016 30 845 24.95 -6.5 20.3 80 -9.4 15.1
23:20 1016 30 845 24.95 -6.8 19.8 81 -9.6 14.7
23:25 1016 30 845 24.95 -7.1 19.2 82 -9.6 14.7
23:30 1016 30 845 24.95 -7.4 18.7 85 -9.5 14.8
23:35 1016 30 845 24.95 -7.3 19 82 -9.8 14.3
23:40 1016 30 845 24.95 -7.3 18.9 83 -9.7 14.6
23:45 1015 29.97 845 24.95 -7.1 19.3 81 -9.7 14.5
23:50 1016 30 845 24.95 -7 19.4 82 -9.6 14.8
23:55 1015 29.97 845 24.95 -6.7 19.9 81 -9.4 15
24:00 1015 29.97 845 24.95 -6.5 20.2 80 -9.4 15.1